Time;durP1;ratioP1;P1;durP2;ratioP2;P2;SDS_P1;SDS_P2;PMS_P1;PMS_P2;Temp;Humidity;BMP_temperature;BMP_pressure;BME280_temperature;BME280_humidity;BME280_pressure;Samples;Min_cycle;Max_cycle;Signal;HPM_P1;HPM_P2
2023/08/13 00:02:14;;;;;;;6.60;2.88;;;19.40;99.90;;;;;;5033599;28;20179;-44
2023/08/13 00:04:40;;;;;;;12.52;3.13;;;19.40;99.90;;;;;;5033647;28;20164;-44
2023/08/13 00:07:05;;;;;;;9.65;3.92;;;19.50;99.90;;;;;;5033410;28;20178;-45
2023/08/13 00:09:31;;;;;;;5.38;3.00;;;19.40;99.90;;;;;;5033545;28;20218;-44
2023/08/13 00:11:57;;;;;;;10.85;3.65;;;19.40;99.90;;;;;;5033222;28;20258;-44
2023/08/13 00:14:22;;;;;;;6.85;3.50;;;19.40;99.90;;;;;;5034082;28;20168;-44
2023/08/13 00:16:48;;;;;;;6.72;2.97;;;19.40;99.90;;;;;;5033378;28;20171;-46
2023/08/13 00:19:15;;;;;;;5.70;2.83;;;19.40;99.90;;;;;;5033720;28;20167;-46
2023/08/13 00:21:41;;;;;;;6.80;2.72;;;19.30;99.90;;;;;;5033453;28;20206;-46
2023/08/13 00:24:06;;;;;;;8.40;3.42;;;19.30;99.90;;;;;;5033273;28;20195;-46
2023/08/13 00:26:32;;;;;;;5.72;3.28;;;19.20;99.90;;;;;;5026342;28;20168;-46
2023/08/13 00:28:58;;;;;;;6.90;2.83;;;19.20;99.90;;;;;;5012224;28;20179;-46
2023/08/13 00:31:24;;;;;;;7.70;3.10;;;19.30;99.90;;;;;;5013701;28;20214;-44
2023/08/13 00:33:49;;;;;;;8.27;3.05;;;19.20;99.90;;;;;;5013447;28;20165;-44
2023/08/13 00:36:15;;;;;;;9.90;3.05;;;19.10;99.90;;;;;;5013279;28;20644;-44
2023/08/13 00:38:41;;;;;;;5.68;3.10;;;19.10;99.90;;;;;;5011959;28;20172;-44
2023/08/13 00:41:07;;;;;;;3.60;3.00;;;19.00;99.90;;;;;;5013385;28;20214;-45
2023/08/13 00:43:32;;;;;;;6.32;2.83;;;19.00;99.90;;;;;;5013103;28;20165;-44
2023/08/13 00:45:58;;;;;;;5.25;2.88;;;19.00;99.90;;;;;;5013133;28;20238;-44
2023/08/13 00:48:24;;;;;;;13.20;3.35;;;19.00;99.90;;;;;;5013363;28;20661;-44
2023/08/13 00:50:50;;;;;;;7.32;3.05;;;19.10;99.90;;;;;;5012206;28;20208;-44
2023/08/13 00:53:16;;;;;;;9.32;3.28;;;19.20;99.90;;;;;;5012893;28;20196;-44
2023/08/13 00:55:42;;;;;;;4.20;2.80;;;19.10;99.90;;;;;;5012983;28;20174;-43
2023/08/13 00:58:08;;;;;;;5.47;3.05;;;19.20;99.90;;;;;;5032232;28;20172;-45
2023/08/13 01:00:34;;;;;;;7.22;2.40;;;19.10;99.90;;;;;;5032649;28;20229;-44
2023/08/13 01:02:59;;;;;;;5.22;2.78;;;19.00;99.90;;;;;;5032198;28;20170;-43
2023/08/13 01:05:53;;;;;;;8.13;2.72;;;19.00;99.90;;;;;;5032698;28;20686;-44
2023/08/13 01:08:49;;;;;;;6.78;2.97;;;19.00;99.90;;;;;;5032514;28;20165;-44
2023/08/13 01:11:25;;;;;;;7.07;3.03;;;18.90;99.90;;;;;;5032422;28;20203;-44
2023/08/13 01:14:06;;;;;;;4.82;2.88;;;18.90;99.90;;;;;;5032592;28;20214;-45
2023/08/13 01:16:32;;;;;;;6.53;3.03;;;18.90;99.90;;;;;;5032200;28;20254;-44
2023/08/13 01:18:58;;;;;;;7.13;2.97;;;18.90;99.90;;;;;;5032060;28;20167;-44
2023/08/13 01:21:24;;;;;;;15.18;3.30;;;18.90;99.90;;;;;;5032534;28;20221;-44
2023/08/13 01:23:49;;;;;;;10.10;3.30;;;18.90;99.90;;;;;;5032126;28;20636;-44
2023/08/13 01:26:21;;;;;;;10.18;3.58;;;18.80;99.90;;;;;;5031464;28;20560;-44
2023/08/13 01:28:57;;;;;;;7.60;3.20;;;18.80;99.90;;;;;;5032067;28;20260;-45
2023/08/13 01:31:30;;;;;;;6.57;3.30;;;18.80;99.90;;;;;;5031078;28;20226;-44
2023/08/13 01:33:58;;;;;;;6.93;3.22;;;18.70;99.90;;;;;;5031994;28;20191;-44
2023/08/13 01:36:25;;;;;;;8.60;3.17;;;18.70;99.90;;;;;;5032273;28;20186;-44
2023/08/13 01:38:52;;;;;;;9.32;3.30;;;18.90;99.90;;;;;;5031173;28;20647;-45
2023/08/13 01:41:18;;;;;;;9.52;3.13;;;18.50;99.90;;;;;;5031760;28;20653;-44
2023/08/13 01:43:44;;;;;;;6.75;3.45;;;18.60;99.90;;;;;;5031693;28;20163;-44
2023/08/13 01:46:09;;;;;;;8.25;3.03;;;18.60;99.90;;;;;;5031696;28;20164;-44
2023/08/13 01:48:35;;;;;;;6.78;3.28;;;18.80;99.90;;;;;;5014877;28;20256;-44
2023/08/13 01:51:00;;;;;;;7.60;3.40;;;18.70;99.90;;;;;;5011810;28;20540;-44
2023/08/13 01:53:26;;;;;;;13.07;4.05;;;18.80;99.90;;;;;;5011635;28;20176;-45
2023/08/13 01:55:52;;;;;;;10.57;3.35;;;18.60;99.90;;;;;;5012453;28;20658;-45
2023/08/13 01:58:17;;;;;;;12.50;3.05;;;18.60;99.90;;;;;;5011879;28;20175;-44
2023/08/13 02:00:43;;;;;;;6.25;3.75;;;18.60;99.90;;;;;;5011737;28;20172;-44
2023/08/13 02:03:10;;;;;;;7.38;2.97;;;18.60;99.90;;;;;;5011733;28;20171;-45
2023/08/13 02:05:36;;;;;;;11.23;3.92;;;18.70;99.90;;;;;;5011983;28;20203;-44
2023/08/13 02:08:01;;;;;;;5.97;2.92;;;18.70;99.90;;;;;;5011616;28;20218;-46
2023/08/13 02:10:27;;;;;;;6.93;2.80;;;18.70;99.90;;;;;;5011476;28;20203;-44
2023/08/13 02:12:53;;;;;;;6.10;2.95;;;18.70;99.90;;;;;;5011755;28;20317;-44
2023/08/13 02:15:18;;;;;;;7.22;3.58;;;18.70;99.90;;;;;;5011529;28;20172;-44
2023/08/13 02:17:44;;;;;;;11.18;3.65;;;18.60;99.90;;;;;;5023394;28;20175;-45
2023/08/13 02:20:10;;;;;;;6.85;3.17;;;18.70;99.90;;;;;;5031186;28;20168;-45
2023/08/13 02:22:36;;;;;;;6.13;2.90;;;18.60;99.90;;;;;;5031054;28;20194;-48
2023/08/13 02:25:01;;;;;;;7.88;3.53;;;18.60;99.90;;;;;;5027864;28;20183;-48
2023/08/13 02:27:27;;;;;;;9.90;3.17;;;18.60;99.90;;;;;;5011476;28;20222;-49
2023/08/13 02:29:52;;;;;;;10.57;3.15;;;18.60;99.90;;;;;;5011585;28;20237;-48
2023/08/13 02:32:18;;;;;;;4.43;3.15;;;18.50;99.90;;;;;;5011336;28;20168;-49
2023/08/13 02:34:45;;;;;;;7.75;3.33;;;18.60;99.90;;;;;;5011234;28;20671;-46
2023/08/13 02:37:11;;;;;;;7.95;2.92;;;18.50;99.90;;;;;;5009928;28;20722;-48
2023/08/13 02:39:37;;;;;;;7.95;2.53;;;18.40;99.90;;;;;;5011192;28;20175;-45
2023/08/13 02:42:03;;;;;;;5.97;2.90;;;18.40;99.90;;;;;;5011118;28;20176;-44
2023/08/13 02:44:29;;;;;;;7.05;2.92;;;18.40;99.90;;;;;;5011260;28;20188;-44
2023/08/13 02:46:54;;;;;;;6.45;3.25;;;18.30;99.90;;;;;;5012801;28;20690;-45
2023/08/13 02:49:20;;;;;;;7.20;3.30;;;21.20;99.90;;;;;;5011539;28;20255;-45
2023/08/13 02:51:45;;;;;;;8.43;3.28;;;18.20;99.90;;;;;;5011007;28;20208;-44
2023/08/13 02:54:11;;;;;;;9.07;2.90;;;18.20;99.90;;;;;;5010848;28;20251;-45
2023/08/13 02:56:37;;;;;;;9.95;3.30;;;18.20;99.90;;;;;;5011070;28;20168;-44
2023/08/13 02:59:03;;;;;;;6.22;2.65;;;18.20;99.90;;;;;;5011054;28;20179;-44
2023/08/13 03:01:29;;;;;;;6.72;3.00;;;18.20;99.90;;;;;;5010940;28;20164;-45
2023/08/13 03:03:55;;;;;;;8.25;2.83;;;18.10;99.90;;;;;;5010990;28;20168;-44
2023/08/13 03:06:24;;;;;;;8.55;2.92;;;17.90;99.90;;;;;;5011564;28;20341;-45
2023/08/13 03:08:50;;;;;;;7.50;2.85;;;17.90;99.90;;;;;;5011622;28;20168;-44
2023/08/13 03:11:16;;;;;;;8.80;3.05;;;17.70;99.90;;;;;;5010865;28;20338;-45
2023/08/13 03:13:43;;;;;;;6.78;2.25;;;17.80;99.90;;;;;;5011884;28;20239;-45
2023/08/13 03:16:09;;;;;;;5.95;2.92;;;17.80;99.90;;;;;;5015631;28;20160;-44
2023/08/13 03:18:34;;;;;;;5.35;2.90;;;17.80;99.90;;;;;;5034135;28;20566;-44
2023/08/13 03:21:00;;;;;;;5.28;2.75;;;17.80;99.90;;;;;;5034532;28;20210;-45
2023/08/13 03:23:25;;;;;;;3.60;2.65;;;17.80;99.90;;;;;;5034366;28;20171;-45
2023/08/13 03:25:51;;;;;;;10.90;3.55;;;17.70;99.90;;;;;;5035541;28;20163;-44
2023/08/13 03:28:16;;;;;;;5.97;2.70;;;17.50;99.90;;;;;;5034853;28;20655;-44
2023/08/13 03:30:42;;;;;;;8.32;2.95;;;17.40;99.90;;;;;;5034716;28;20207;-45
2023/08/13 03:33:07;;;;;;;6.63;3.13;;;17.40;99.90;;;;;;5034759;28;20176;-45
2023/08/13 03:35:39;;;;;;;4.82;2.67;;;17.50;99.90;;;;;;5034749;28;20251;-44
2023/08/13 03:38:05;;;;;;;5.80;2.67;;;17.60;99.90;;;;;;5034699;28;20167;-44
2023/08/13 03:40:31;;;;;;;6.05;3.20;;;17.60;99.90;;;;;;5034583;28;20171;-49
2023/08/13 03:42:56;;;;;;;5.60;3.30;;;17.60;99.90;;;;;;5034548;28;20627;-46
2023/08/13 03:45:22;;;;;;;7.32;2.88;;;17.60;99.90;;;;;;5034936;28;20175;-46
2023/08/13 03:47:47;;;;;;;6.80;2.78;;;17.70;99.90;;;;;;5019992;28;20175;-44
2023/08/13 03:50:13;;;;;;;6.68;2.47;;;17.70;99.90;;;;;;5014522;28;20196;-45
2023/08/13 03:52:38;;;;;;;16.52;3.80;;;17.60;99.90;;;;;;5014606;28;20167;-44
2023/08/13 03:55:04;;;;;;;6.70;2.80;;;17.60;99.90;;;;;;5014665;28;20176;-44
2023/08/13 03:57:30;;;;;;;6.80;2.55;;;17.60;99.90;;;;;;5014532;28;20168;-44
2023/08/13 03:59:55;;;;;;;5.75;2.47;;;17.60;99.90;;;;;;5014527;28;20175;-47
2023/08/13 04:02:21;;;;;;;7.50;2.65;;;17.50;99.90;;;;;;5015004;28;20172;-47
2023/08/13 04:04:46;;;;;;;11.75;2.80;;;17.30;99.90;;;;;;5014411;28;20175;-47
2023/08/13 04:07:12;;;;;;;6.88;2.47;;;17.10;99.90;;;;;;5014382;28;20176;-47
2023/08/13 04:09:37;;;;;;;5.57;2.83;;;17.10;99.90;;;;;;5014663;28;20259;-48
2023/08/13 04:12:03;;;;;;;9.23;3.15;;;17.10;99.90;;;;;;5014030;28;20231;-47
2023/08/13 04:14:29;;;;;;;4.97;2.92;;;17.10;99.90;;;;;;5014481;28;20589;-46
2023/08/13 04:16:54;;;;;;;6.20;2.80;;;17.20;99.90;;;;;;5021080;28;20195;-44
2023/08/13 04:19:20;;;;;;;4.45;2.63;;;17.20;99.90;;;;;;5033068;28;20167;-44
2023/08/13 04:21:46;;;;;;;5.80;3.10;;;17.10;99.90;;;;;;5033909;28;20182;-44
2023/08/13 04:24:11;;;;;;;6.88;2.80;;;17.20;99.90;;;;;;5033397;28;20262;-44
2023/08/13 04:26:37;;;;;;;9.35;2.83;;;17.20;99.90;;;;;;5032739;28;20226;-47
2023/08/13 04:29:02;;;;;;;4.10;2.58;;;17.20;99.90;;;;;;5033824;28;20178;-46
2023/08/13 04:31:28;;;;;;;6.82;2.95;;;17.30;99.90;;;;;;5033885;28;20211;-47
2023/08/13 04:33:53;;;;;;;7.85;2.50;;;17.20;99.90;;;;;;5034324;28;20164;-47
2023/08/13 04:36:19;;;;;;;6.07;2.88;;;17.20;99.90;;;;;;5033882;28;20170;-47
2023/08/13 04:38:44;;;;;;;5.60;2.65;;;17.10;99.90;;;;;;5033801;28;20164;-47
2023/08/13 04:41:10;;;;;;;9.30;3.97;;;17.20;99.90;;;;;;5033586;28;20656;-44
2023/08/13 04:43:35;;;;;;;8.02;2.72;;;17.20;99.90;;;;;;5033511;28;20182;-44
2023/08/13 04:46:01;;;;;;;7.00;3.45;;;17.30;99.90;;;;;;5033476;28;20164;-44
2023/08/13 04:48:40;;;;;;;9.90;3.50;;;17.40;99.90;;;;;;5013570;28;20187;-44
2023/08/13 04:51:06;;;;;;;9.02;3.30;;;17.30;99.90;;;;;;5013476;28;20227;-44
2023/08/13 04:53:31;;;;;;;10.50;3.28;;;17.30;99.90;;;;;;5013539;28;20254;-44
2023/08/13 04:55:57;;;;;;;8.68;3.25;;;17.30;99.90;;;;;;5013421;28;20172;-45
2023/08/13 04:58:22;;;;;;;8.23;3.38;;;17.30;99.90;;;;;;5013791;28;20172;-44
2023/08/13 05:00:48;;;;;;;10.60;3.88;;;17.30;99.90;;;;;;5013324;28;20166;-44
2023/08/13 05:03:13;;;;;;;12.02;3.78;;;17.50;99.90;;;;;;5013545;28;20164;-43
2023/08/13 05:05:39;;;;;;;9.35;3.60;;;17.60;99.90;;;;;;5033014;28;20183;-44
2023/08/13 05:08:05;;;;;;;9.88;3.28;;;17.60;99.90;;;;;;5033015;28;20178;-44
2023/08/13 05:10:32;;;;;;;7.30;3.05;;;17.60;99.90;;;;;;5031974;28;20218;-44
2023/08/13 05:12:58;;;;;;;7.07;3.03;;;17.60;99.90;;;;;;5032804;28;20215;-44
2023/08/13 05:15:24;;;;;;;10.18;2.90;;;17.60;99.90;;;;;;5033363;28;20167;-45
2023/08/13 05:17:49;;;;;;;5.65;2.90;;;17.70;99.90;;;;;;5016612;28;20168;-44
2023/08/13 05:20:15;;;;;;;7.15;2.80;;;17.80;99.90;;;;;;5013005;28;20168;-44
2023/08/13 05:22:40;;;;;;;12.50;3.58;;;17.70;99.90;;;;;;5012987;28;20198;-44
2023/08/13 05:25:06;;;;;;;7.95;2.90;;;17.80;99.90;;;;;;5013985;28;20164;-44
2023/08/13 05:27:32;;;;;;;12.63;3.00;;;17.80;99.90;;;;;;5013079;28;20179;-44
2023/08/13 05:29:58;;;;;;;4.95;2.42;;;18.00;99.90;;;;;;5012725;28;20168;-44
2023/08/13 05:32:24;;;;;;;11.50;3.08;;;17.90;99.90;;;;;;5013137;28;20174;-44
2023/08/13 05:34:50;;;;;;;8.18;2.80;;;21.20;99.90;;;;;;5013410;28;20182;-45
2023/08/13 05:37:15;;;;;;;10.90;3.30;;;17.90;99.90;;;;;;5012355;28;20250;-44
2023/08/13 05:39:41;;;;;;;8.65;2.63;;;17.90;99.90;;;;;;5011407;28;20183;-44
2023/08/13 05:42:06;;;;;;;10.65;2.92;;;17.90;99.90;;;;;;5012662;28;20184;-44
2023/08/13 05:44:32;;;;;;;10.93;3.20;;;17.90;99.90;;;;;;5012588;28;20176;-45
2023/08/13 05:46:57;;;;;;;9.18;3.10;;;17.90;99.90;;;;;;5012560;28;20176;-44
2023/08/13 05:49:23;;;;;;;7.30;2.85;;;18.00;99.90;;;;;;5012889;28;20168;-44
2023/08/13 05:51:48;;;;;;;14.02;3.10;;;18.00;99.90;;;;;;5012314;28;20209;-45
2023/08/13 05:54:15;;;;;;;10.63;3.40;;;18.00;99.90;;;;;;5012422;28;20168;-44
2023/08/13 05:56:40;;;;;;;5.70;3.58;;;18.20;99.90;;;;;;5030831;28;20167;-44
2023/08/13 05:59:06;;;;;;;8.98;3.55;;;18.10;99.90;;;;;;5032020;28;20170;-45
2023/08/13 06:01:32;;;;;;;4.60;3.30;;;18.30;99.90;;;;;;5031995;28;20566;-44
2023/08/13 06:03:57;;;;;;;13.25;3.63;;;18.40;99.90;;;;;;5032209;28;20207;-44
2023/08/13 06:06:23;;;;;;;14.13;3.72;;;18.40;99.90;;;;;;5032249;28;20210;-44
2023/08/13 06:08:49;;;;;;;9.80;3.30;;;18.60;99.90;;;;;;5032381;28;20171;-45
2023/08/13 06:11:14;;;;;;;7.45;2.67;;;18.70;99.90;;;;;;5031017;28;20203;-44
2023/08/13 06:13:40;;;;;;;9.98;3.17;;;18.70;99.90;;;;;;5031372;28;20219;-44
2023/08/13 06:16:06;;;;;;;12.05;3.42;;;18.80;99.90;;;;;;5031770;28;20171;-44
2023/08/13 06:18:33;;;;;;;13.02;3.58;;;18.90;99.90;;;;;;5032013;28;20594;-44
2023/08/13 06:20:59;;;;;;;10.32;3.22;;;19.00;99.90;;;;;;5031796;28;20250;-45
2023/08/13 06:23:25;;;;;;;4.55;2.70;;;19.10;99.90;;;;;;5031618;28;20251;-45
2023/08/13 06:25:51;;;;;;;9.05;3.55;;;19.00;99.90;;;;;;5020534;28;20674;-45
2023/08/13 06:28:16;;;;;;;5.82;3.05;;;19.10;99.90;;;;;;5011824;28;20602;-44
2023/08/13 06:30:45;;;;;;;6.70;3.05;;;19.20;99.90;;;;;;5011646;28;20306;-46
2023/08/13 06:33:10;;;;;;;5.88;3.30;;;19.30;99.90;;;;;;5011813;28;20203;-44
2023/08/13 06:35:36;;;;;;;10.07;3.20;;;19.20;99.90;;;;;;5011468;28;20663;-44
2023/08/13 06:38:02;;;;;;;7.63;3.25;;;19.30;99.90;;;;;;5011271;28;20640;-45
2023/08/13 06:40:28;;;;;;;8.20;3.60;;;19.40;99.90;;;;;;5011472;28;20187;-44
2023/08/13 06:42:54;;;;;;;7.15;3.00;;;19.50;99.90;;;;;;5011876;28;20188;-44
2023/08/13 06:45:23;;;;;;;11.10;3.10;;;19.60;99.90;;;;;;5012199;28;20175;-45
2023/08/13 06:47:48;;;;;;;9.30;3.83;;;19.70;99.90;;;;;;5011853;28;20168;-46
2023/08/13 06:50:14;;;;;;;9.40;3.70;;;19.80;99.90;;;;;;5011344;28;20226;-45
2023/08/13 06:52:40;;;;;;;6.00;3.05;;;19.90;99.90;;;;;;5011711;28;20217;-45
2023/08/13 06:55:06;;;;;;;4.30;2.75;;;20.00;99.90;;;;;;5012684;28;20164;-44
2023/08/13 06:57:31;;;;;;;9.98;3.35;;;20.00;99.90;;;;;;5011427;28;20183;-45
2023/08/13 06:59:57;;;;;;;7.13;3.53;;;20.20;99.90;;;;;;5011597;28;20172;-45
2023/08/13 07:02:23;;;;;;;9.10;2.38;;;20.20;99.90;;;;;;5011891;28;20617;-44
2023/08/13 07:04:48;;;;;;;6.35;2.95;;;20.20;99.90;;;;;;5011612;28;20176;-45
2023/08/13 07:07:15;;;;;;;8.55;3.70;;;20.30;99.90;;;;;;5011692;28;20172;-45
2023/08/13 07:09:40;;;;;;;10.40;3.60;;;20.30;99.90;;;;;;5011697;28;20268;-44
2023/08/13 07:12:06;;;;;;;7.35;3.53;;;20.40;99.90;;;;;;5011291;28;20684;-44
2023/08/13 07:14:32;;;;;;;8.77;3.08;;;20.40;99.90;;;;;;5011477;28;20247;-43
2023/08/13 07:16:57;;;;;;;8.00;3.40;;;20.50;99.90;;;;;;5011578;28;20192;-43
2023/08/13 07:19:23;;;;;;;7.50;3.28;;;20.50;99.90;;;;;;5011835;28;20535;-43
2023/08/13 07:21:48;;;;;;;7.05;2.63;;;20.50;99.90;;;;;;5010996;28;20628;-44
2023/08/13 07:24:14;;;;;;;8.57;3.50;;;20.70;99.90;;;;;;5009742;28;20183;-43
2023/08/13 07:26:39;;;;;;;6.55;3.47;;;20.90;99.90;;;;;;5026796;28;20175;-44
2023/08/13 07:29:06;;;;;;;10.30;2.65;;;20.90;99.90;;;;;;5029061;28;20203;-43
2023/08/13 07:31:35;;;;;;;9.50;3.53;;;21.00;99.90;;;;;;5029053;28;20298;-43
2023/08/13 07:34:00;;;;;;;9.52;4.00;;;21.00;99.90;;;;;;5029080;28;20654;-43
2023/08/13 07:36:26;;;;;;;5.78;2.83;;;21.00;99.90;;;;;;5029171;28;20172;-44
2023/08/13 07:38:52;;;;;;;9.07;3.08;;;21.00;99.90;;;;;;5029830;28;20190;-44
2023/08/13 07:41:17;;;;;;;7.38;3.05;;;21.20;99.90;;;;;;5029233;28;20206;-43
2023/08/13 07:43:43;;;;;;;8.85;3.53;;;21.40;99.90;;;;;;5029030;28;20215;-43
2023/08/13 07:46:09;;;;;;;6.93;2.70;;;21.70;99.90;;;;;;5029010;28;20170;-43
2023/08/13 07:48:35;;;;;;;7.20;2.90;;;21.80;99.90;;;;;;5028893;28;20160;-43
2023/08/13 07:51:00;;;;;;;9.20;2.80;;;21.90;99.90;;;;;;5028893;28;20211;-43
2023/08/13 07:53:29;;;;;;;9.95;2.95;;;21.90;99.90;;;;;;5028747;28;20193;-44
2023/08/13 07:55:54;;;;;;;8.52;2.80;;;22.00;99.90;;;;;;5015973;28;20184;-43
2023/08/13 07:58:20;;;;;;;7.18;2.60;;;22.10;99.90;;;;;;5028244;28;20182;-43
2023/08/13 08:00:46;;;;;;;9.55;2.70;;;22.10;99.90;;;;;;5032123;28;20167;-43
2023/08/13 08:03:12;;;;;;;6.85;2.28;;;22.30;99.90;;;;;;5034251;28;20233;-44
2023/08/13 08:05:38;;;;;;;6.38;2.65;;;22.30;99.90;;;;;;5034230;28;20178;-46
2023/08/13 08:08:03;;;;;;;6.88;2.22;;;22.50;99.90;;;;;;5034414;28;20176;-45
2023/08/13 08:10:29;;;;;;;4.53;2.20;;;22.70;99.90;;;;;;5034317;28;20202;-45
2023/08/13 08:12:55;;;;;;;4.53;2.10;;;22.60;99.90;;;;;;5033848;28;20690;-46
2023/08/13 08:15:21;;;;;;;6.47;1.90;;;22.70;99.90;;;;;;5034512;28;20691;-48
2023/08/13 08:17:47;;;;;;;7.45;2.10;;;22.80;99.90;;;;;;5034195;28;20595;-44
2023/08/13 08:20:13;;;;;;;4.82;1.98;;;22.70;99.90;;;;;;5034072;28;20675;-46
2023/08/13 08:22:39;;;;;;;7.65;2.42;;;22.60;99.90;;;;;;5033862;28;20174;-45
2023/08/13 08:25:09;;;;;;;6.63;2.33;;;22.90;99.90;;;;;;5026771;28;20176;-46
2023/08/13 08:27:35;;;;;;;7.60;2.60;;;23.00;99.90;;;;;;5014201;28;20187;-44
2023/08/13 08:30:01;;;;;;;5.28;1.90;;;23.10;99.90;;;;;;5014095;28;20171;-45
2023/08/13 08:32:29;;;;;;;4.75;2.15;;;22.90;99.90;;;;;;5013910;28;20179;-46
2023/08/13 08:34:54;;;;;;;6.75;2.30;;;22.70;99.90;;;;;;5013821;28;20167;-46
2023/08/13 08:37:20;;;;;;;6.50;2.13;;;22.70;99.90;;;;;;5014167;28;20251;-45
2023/08/13 08:39:45;;;;;;;3.78;1.88;;;22.60;99.90;;;;;;5013824;28;20174;-47
2023/08/13 08:42:11;;;;;;;5.90;2.03;;;22.50;99.90;;;;;;5013650;28;20175;-47
2023/08/13 08:44:42;;;;;;;6.00;2.00;;;22.70;99.90;;;;;;5013675;28;20179;-46
2023/08/13 08:47:08;;;;;;;9.30;2.33;;;22.70;99.90;;;;;;5013717;28;20183;-47
2023/08/13 08:49:35;;;;;;;3.40;2.05;;;22.90;99.90;;;;;;5013884;28;20175;-48
2023/08/13 08:52:01;;;;;;;5.75;2.08;;;22.90;99.90;;;;;;5013471;28;20663;-47
2023/08/13 08:54:26;;;;;;;8.65;1.95;;;23.00;99.90;;;;;;5014566;28;20168;-46
2023/08/13 08:56:52;;;;;;;5.38;2.05;;;23.20;99.90;;;;;;5033692;28;20580;-48
2023/08/13 08:59:18;;;;;;;8.15;2.40;;;23.20;99.90;;;;;;5033156;28;20189;-48
2023/08/13 09:01:44;;;;;;;4.38;2.15;;;23.20;99.90;;;;;;5032093;28;20175;-49
2023/08/13 09:04:09;;;;;;;7.68;2.17;;;23.40;99.90;;;;;;5032725;28;20178;-48
2023/08/13 09:06:57;;;;;;;6.35;1.92;;;23.80;99.90;;;;;;5033011;28;20178;-47
2023/08/13 09:09:26;;;;;;;5.20;2.33;;;24.00;99.90;;;;;;5033620;28;20198;-47
2023/08/13 09:11:54;;;;;;;8.43;2.40;;;23.90;99.90;;;;;;5032539;28;20294;-44
2023/08/13 09:14:20;;;;;;;6.05;2.38;;;24.00;99.90;;;;;;5033342;28;20194;-49
2023/08/13 09:16:47;;;;;;;5.82;2.20;;;24.00;99.90;;;;;;5032906;28;20166;-47
2023/08/13 09:19:13;;;;;;;7.97;2.00;;;24.10;99.90;;;;;;5033056;28;20228;-48
2023/08/13 09:21:40;;;;;;;6.53;2.50;;;23.90;99.90;;;;;;5032728;28;20163;-47
2023/08/13 09:24:07;;;;;;;5.55;2.50;;;24.00;99.90;;;;;;5032633;28;20634;-46
2023/08/13 09:26:33;;;;;;;7.85;2.33;;;23.90;99.90;;;;;;5032117;28;20201;-49
2023/08/13 09:28:59;;;;;;;6.13;2.40;;;23.90;99.90;;;;;;5032627;28;20533;-47
2023/08/13 09:31:25;;;;;;;8.20;2.80;;;24.10;99.90;;;;;;5032705;28;20246;-45
2023/08/13 09:33:51;;;;;;;5.55;2.40;;;24.20;99.90;;;;;;5033120;28;20170;-46
2023/08/13 09:36:17;;;;;;;5.30;2.20;;;24.30;99.90;;;;;;5032504;28;20171;-49
2023/08/13 09:38:42;;;;;;;6.57;2.58;;;24.20;99.90;;;;;;5032251;28;20657;-47
2023/08/13 09:41:10;;;;;;;6.65;2.38;;;24.10;99.90;;;;;;5032350;28;20244;-48
2023/08/13 09:43:39;;;;;;;5.75;1.92;;;24.40;99.90;;;;;;5032198;28;20183;-48
2023/08/13 09:46:06;;;;;;;6.57;2.20;;;24.60;99.90;;;;;;5032446;28;20182;-44
2023/08/13 09:48:32;;;;;;;8.38;2.78;;;24.70;99.90;;;;;;5032290;28;20155;-46
2023/08/13 09:51:01;;;;;;;5.80;2.40;;;24.70;99.90;;;;;;5032080;28;20202;-47
2023/08/13 09:53:29;;;;;;;7.70;2.45;;;24.90;99.90;;;;;;5032105;28;20623;-49
2023/08/13 09:56:01;;;;;;;5.18;2.30;;;24.70;99.90;;;;;;5031309;28;20266;-48
2023/08/13 09:58:28;;;;;;;5.85;2.28;;;24.80;99.90;;;;;;5032318;28;20182;-46
2023/08/13 10:00:54;;;;;;;8.35;2.30;;;24.80;99.90;;;;;;5031956;28;20534;-48
2023/08/13 10:03:22;;;;;;;4.53;2.17;;;25.10;99.90;;;;;;5032153;28;20177;-48
2023/08/13 10:05:48;;;;;;;7.15;2.30;;;25.10;99.90;;;;;;5031966;28;20159;-49
2023/08/13 10:08:14;;;;;;;8.60;2.42;;;25.20;99.90;;;;;;5031770;28;20704;-48
2023/08/13 10:10:40;;;;;;;8.73;2.55;;;25.20;99.90;;;;;;5031749;28;20202;-47
2023/08/13 10:13:06;;;;;;;5.05;2.30;;;25.10;99.90;;;;;;5031594;28;20702;-47
2023/08/13 10:15:34;;;;;;;6.78;2.30;;;24.90;99.90;;;;;;5031819;28;20171;-45
2023/08/13 10:18:00;;;;;;;5.43;2.33;;;24.90;99.90;;;;;;5032008;28;20207;-47
2023/08/13 10:20:25;;;;;;;6.40;2.25;;;24.80;99.90;;;;;;5031707;28;20167;-48
2023/08/13 10:22:53;;;;;;;5.80;2.38;;;24.80;99.90;;;;;;5031484;28;20166;-49
2023/08/13 10:25:26;;;;;;;7.95;2.40;;;24.70;99.90;;;;;;5021460;28;20259;-47
2023/08/13 10:27:53;;;;;;;4.68;1.95;;;24.80;99.90;;;;;;5012478;28;20172;-49
2023/08/13 10:30:19;;;;;;;6.40;2.10;;;24.80;99.90;;;;;;5012211;28;20651;-48
2023/08/13 10:32:54;;;;;;;8.52;2.88;;;24.80;99.90;;;;;;5011872;28;20198;-47
2023/08/13 10:35:39;;;;;;;9.02;2.22;;;24.60;99.90;;;;;;5012354;28;20531;-47
2023/08/13 10:38:05;;;;;;;5.95;2.72;;;24.70;99.90;;;;;;5011795;28;20163;-43
2023/08/13 10:40:31;;;;;;;6.85;2.70;;;24.90;99.90;;;;;;5011851;28;20648;-49
2023/08/13 10:42:58;;;;;;;5.40;2.67;;;24.70;99.90;;;;;;5011629;28;20250;-48
2023/08/13 10:45:25;;;;;;;9.32;2.60;;;24.50;99.90;;;;;;5012021;28;20175;-49
2023/08/13 10:47:54;;;;;;;6.50;2.53;;;24.60;99.90;;;;;;5012466;28;20167;-50
2023/08/13 10:50:38;;;;;;;5.15;2.42;;;24.80;99.90;;;;;;5012046;28;20250;-49
2023/08/13 10:53:11;;;;;;;9.63;2.65;;;24.90;99.90;;;;;;5011726;28;20164;-44
2023/08/13 10:55:47;;;;;;;9.85;2.67;;;25.20;99.90;;;;;;5026718;28;20685;-44
2023/08/13 10:58:26;;;;;;;7.57;2.50;;;25.00;99.90;;;;;;5031403;28;20174;-44
2023/08/13 11:01:09;;;;;;;5.05;2.35;;;25.00;99.90;;;;;;5032060;28;20326;-49
2023/08/13 11:03:51;;;;;;;8.80;2.75;;;25.00;99.90;;;;;;5031276;28;20169;-44
2023/08/13 11:06:19;;;;;;;8.88;3.00;;;25.10;99.90;;;;;;5031215;28;20627;-46
2023/08/13 11:08:46;;;;;;;4.90;2.40;;;25.20;99.90;;;;;;5031211;28;20173;-48
2023/08/13 11:11:13;;;;;;;6.57;2.50;;;25.30;99.90;;;;;;5031086;28;20230;-46
2023/08/13 11:13:39;;;;;;;7.53;2.78;;;25.20;99.90;;;;;;5029750;28;20777;-49
2023/08/13 11:16:05;;;;;;;16.67;11.38;;;25.20;99.90;;;;;;5031068;28;20221;-49
2023/08/13 11:18:30;;;;;;;8.25;3.03;;;24.80;99.90;;;;;;5031118;28;20163;-49
2023/08/13 11:20:56;;;;;;;8.73;2.67;;;24.70;99.90;;;;;;5031089;28;20171;-48
2023/08/13 11:23:22;;;;;;;7.22;2.65;;;24.70;99.90;;;;;;5031538;28;20167;-49
2023/08/13 11:25:49;;;;;;;10.95;3.28;;;24.60;99.90;;;;;;5029697;28;20205;-48
2023/08/13 11:28:22;;;;;;;5.65;2.70;;;24.60;99.90;;;;;;5031344;28;20178;-45
2023/08/13 11:30:52;;;;;;;8.82;2.80;;;24.60;99.90;;;;;;5031267;28;20199;-49
2023/08/13 11:33:17;;;;;;;6.22;2.97;;;24.70;99.90;;;;;;5031472;28;20171;-48
2023/08/13 11:35:44;;;;;;;7.10;2.85;;;24.60;99.90;;;;;;5033663;28;20170;-49
2023/08/13 11:38:10;;;;;;;8.13;2.72;;;24.50;99.90;;;;;;5034807;28;20189;-48
2023/08/13 11:40:36;;;;;;;10.43;2.78;;;24.60;99.90;;;;;;5034770;28;20179;-49
2023/08/13 11:43:03;;;;;;;9.02;2.80;;;24.80;99.90;;;;;;5034661;28;20163;-48
2023/08/13 11:45:31;;;;;;;6.15;2.90;;;24.80;99.90;;;;;;5034913;28;20179;-44
2023/08/13 11:48:13;;;;;;;9.65;2.97;;;24.90;99.90;;;;;;5034608;28;20238;-48
2023/08/13 11:50:40;;;;;;;6.75;2.90;;;25.00;99.90;;;;;;5034499;28;20198;-44
2023/08/13 11:53:13;;;;;;;7.90;3.00;;;25.00;99.90;;;;;;5033321;28;20271;-44
2023/08/13 11:55:42;;;;;;;5.20;2.97;;;24.90;99.90;;;;;;5016877;28;20643;-44
2023/08/13 11:58:08;;;;;;;8.77;2.83;;;24.80;99.90;;;;;;5014646;28;20179;-43
2023/08/13 12:00:34;;;;;;;6.43;2.50;;;24.90;99.90;;;;;;5014527;28;20185;-44
2023/08/13 12:03:00;;;;;;;6.47;2.85;;;24.90;99.90;;;;;;5014624;28;20175;-48
2023/08/13 12:05:27;;;;;;;8.48;2.78;;;24.80;99.90;;;;;;5014567;28;20167;-47
2023/08/13 12:07:58;;;;;;;5.85;3.10;;;24.80;99.90;;;;;;5014499;28;20175;-45
2023/08/13 12:10:23;;;;;;;7.63;2.72;;;25.10;99.90;;;;;;5014522;28;20171;-45
2023/08/13 12:12:49;;;;;;;7.00;3.00;;;25.00;99.90;;;;;;5014647;28;20217;-47
2023/08/13 12:15:24;;;;;;;6.72;2.55;;;25.10;99.90;;;;;;5014551;28;20167;-44
2023/08/13 12:17:51;;;;;;;5.68;2.45;;;25.10;99.90;;;;;;5014630;28;20635;-44
2023/08/13 12:20:17;;;;;;;4.32;2.08;;;25.30;99.90;;;;;;5014537;28;20571;-44
2023/08/13 12:22:42;;;;;;;4.75;2.42;;;25.30;99.90;;;;;;5014160;28;20171;-45
2023/08/13 12:25:08;;;;;;;6.68;2.53;;;25.40;99.90;;;;;;5026815;28;20206;-44
2023/08/13 12:27:34;;;;;;;8.30;2.67;;;25.50;99.90;;;;;;5033624;28;20174;-44
2023/08/13 12:30:00;;;;;;;6.13;2.70;;;25.50;99.90;;;;;;5034086;28;20178;-47
2023/08/13 12:32:25;;;;;;;3.90;2.95;;;25.60;99.90;;;;;;5033977;28;20214;-44
2023/08/13 12:34:51;;;;;;;5.85;2.50;;;25.80;99.90;;;;;;5034427;28;20167;-46
2023/08/13 12:37:17;;;;;;;9.85;2.60;;;26.10;99.90;;;;;;5033798;28;20218;-45
2023/08/13 12:39:42;;;;;;;5.43;2.50;;;26.40;99.90;;;;;;5033566;28;20166;-44
2023/08/13 12:42:10;;;;;;;8.05;3.40;;;26.00;99.90;;;;;;5033612;28;20175;-44
2023/08/13 12:44:36;;;;;;;10.88;2.88;;;26.20;99.90;;;;;;5033626;28;20193;-44